sensor_id;sensor_type;location;lat;lon;timestamp;temperature;humidity
22426;DHT22;11380;50.822;15.790;2022-12-20T00:01:24;2.10;1.00
22426;DHT22;11380;50.822;15.790;2022-12-20T00:06:33;2.50;1.00
22426;DHT22;11380;50.822;15.790;2022-12-20T00:11:40;3.10;99.90
22426;DHT22;11380;50.822;15.790;2022-12-20T00:16:46;2.90;99.90
22426;DHT22;11380;50.822;15.790;2022-12-20T00:21:53;3.30;99.90
22426;DHT22;11380;50.822;15.790;2022-12-20T00:26:59;3.60;28.40
22426;DHT22;11380;50.822;15.790;2022-12-20T00:32:05;2.80;99.90
22426;DHT22;11380;50.822;15.790;2022-12-20T00:37:13;2.50;1.00
22426;DHT22;11380;50.822;15.790;2022-12-20T00:42:20;2.10;1.00
22426;DHT22;11380;50.822;15.790;2022-12-20T00:47:26;2.00;1.00
22426;DHT22;11380;50.822;15.790;2022-12-20T00:52:34;1.90;1.00
22426;DHT22;11380;50.822;15.790;2022-12-20T00:57:41;1.90;1.00
22426;DHT22;11380;50.822;15.790;2022-12-20T01:02:47;2.00;1.00
22426;DHT22;11380;50.822;15.790;2022-12-20T01:07:54;1.80;1.00
22426;DHT22;11380;50.822;15.790;2022-12-20T01:13:00;1.80;1.00
22426;DHT22;11380;50.822;15.790;2022-12-20T01:18:06;2.00;1.00
22426;DHT22;11380;50.822;15.790;2022-12-20T01:23:13;1.80;1.00
22426;DHT22;11380;50.822;15.790;2022-12-20T01:28:20;1.80;1.00
22426;DHT22;11380;50.822;15.790;2022-12-20T01:33:26;1.60;1.00
22426;DHT22;11380;50.822;15.790;2022-12-20T01:38:33;1.50;1.00
22426;DHT22;11380;50.822;15.790;2022-12-20T01:49:03;1.30;1.00
22426;DHT22;11380;50.822;15.790;2022-12-20T01:54:13;1.20;1.00
22426;DHT22;11380;50.822;15.790;2022-12-20T01:59:22;1.20;1.00
22426;DHT22;11380;50.822;15.790;2022-12-20T02:04:29;0.90;1.00
22426;DHT22;11380;50.822;15.790;2022-12-20T02:09:36;0.90;1.00
22426;DHT22;11380;50.822;15.790;2022-12-20T02:14:53;1.00;1.00
22426;DHT22;11380;50.822;15.790;2022-12-20T02:25:55;1.00;1.00
22426;DHT22;11380;50.822;15.790;2022-12-20T02:31:19;0.80;1.00
22426;DHT22;11380;50.822;15.790;2022-12-20T02:36:28;0.70;1.00
22426;DHT22;11380;50.822;15.790;2022-12-20T02:41:37;0.70;1.00
22426;DHT22;11380;50.822;15.790;2022-12-20T02:46:46;0.60;1.00
22426;DHT22;11380;50.822;15.790;2022-12-20T02:51:55;0.30;1.00
22426;DHT22;11380;50.822;15.790;2022-12-20T03:02:22;0.40;1.00
22426;DHT22;11380;50.822;15.790;2022-12-20T03:07:33;0.40;1.00
22426;DHT22;11380;50.822;15.790;2022-12-20T03:12:39;0.30;1.00
22426;DHT22;11380;50.822;15.790;2022-12-20T03:17:45;0.40;1.00
22426;DHT22;11380;50.822;15.790;2022-12-20T03:22:51;0.40;1.00
22426;DHT22;11380;50.822;15.790;2022-12-20T03:27:58;0.30;1.00
22426;DHT22;11380;50.822;15.790;2022-12-20T03:33:04;0.20;1.00
22426;DHT22;11380;50.822;15.790;2022-12-20T03:38:11;0.40;1.00
22426;DHT22;11380;50.822;15.790;2022-12-20T03:43:17;0.30;1.00
22426;DHT22;11380;50.822;15.790;2022-12-20T03:48:24;0.30;1.00
22426;DHT22;11380;50.822;15.790;2022-12-20T03:53:31;0.20;1.00
22426;DHT22;11380;50.822;15.790;2022-12-20T03:58:37;0.20;1.00
22426;DHT22;11380;50.822;15.790;2022-12-20T04:03:43;0.30;1.00
22426;DHT22;11380;50.822;15.790;2022-12-20T04:08:50;0.40;1.00
22426;DHT22;11380;50.822;15.790;2022-12-20T04:13:57;0.20;1.00
22426;DHT22;11380;50.822;15.790;2022-12-20T04:19:04;0.30;1.00
22426;DHT22;11380;50.822;15.790;2022-12-20T04:24:10;0.20;1.00
22426;DHT22;11380;50.822;15.790;2022-12-20T04:29:18;0.30;1.00
22426;DHT22;11380;50.822;15.790;2022-12-20T04:34:24;0.40;1.00
22426;DHT22;11380;50.822;15.790;2022-12-20T04:39:31;0.90;1.00
22426;DHT22;11380;50.822;15.790;2022-12-20T04:44:37;1.40;1.00
22426;DHT22;11380;50.822;15.790;2022-12-20T04:49:43;2.00;1.00
22426;DHT22;11380;50.822;15.790;2022-12-20T04:54:49;2.20;1.00
22426;DHT22;11380;50.822;15.790;2022-12-20T04:59:55;2.40;1.00
22426;DHT22;11380;50.822;15.790;2022-12-20T05:05:02;2.30;1.00
22426;DHT22;11380;50.822;15.790;2022-12-20T05:10:09;2.20;99.90
22426;DHT22;11380;50.822;15.790;2022-12-20T05:15:16;2.20;1.00
22426;DHT22;11380;50.822;15.790;2022-12-20T05:20:23;2.40;99.90
22426;DHT22;11380;50.822;15.790;2022-12-20T05:25:31;2.20;99.90
22426;DHT22;11380;50.822;15.790;2022-12-20T05:30:55;2.30;99.90
22426;DHT22;11380;50.822;15.790;2022-12-20T05:36:02;2.10;99.90
22426;DHT22;11380;50.822;15.790;2022-12-20T05:41:09;1.60;1.00
22426;DHT22;11380;50.822;15.790;2022-12-20T05:46:16;1.50;1.00
22426;DHT22;11380;50.822;15.790;2022-12-20T05:51:23;1.50;1.00
22426;DHT22;11380;50.822;15.790;2022-12-20T05:56:31;1.50;1.00
22426;DHT22;11380;50.822;15.790;2022-12-20T06:01:37;2.20;1.00
22426;DHT22;11380;50.822;15.790;2022-12-20T06:06:43;2.20;1.00
22426;DHT22;11380;50.822;15.790;2022-12-20T06:11:49;2.20;99.90
22426;DHT22;11380;50.822;15.790;2022-12-20T06:16:56;2.00;99.90
22426;DHT22;11380;50.822;15.790;2022-12-20T06:22:04;2.20;99.90
22426;DHT22;11380;50.822;15.790;2022-12-20T06:27:10;2.20;99.90
22426;DHT22;11380;50.822;15.790;2022-12-20T06:32:17;2.30;99.90
22426;DHT22;11380;50.822;15.790;2022-12-20T06:37:24;2.30;99.90
22426;DHT22;11380;50.822;15.790;2022-12-20T06:42:31;2.30;99.90
22426;DHT22;11380;50.822;15.790;2022-12-20T06:47:38;2.40;99.90
22426;DHT22;11380;50.822;15.790;2022-12-20T06:52:46;2.30;99.90
22426;DHT22;11380;50.822;15.790;2022-12-20T06:57:52;2.30;99.90
22426;DHT22;11380;50.822;15.790;2022-12-20T07:03:00;2.40;99.90
22426;DHT22;11380;50.822;15.790;2022-12-20T07:08:07;2.30;99.90
22426;DHT22;11380;50.822;15.790;2022-12-20T07:13:14;2.30;99.90
22426;DHT22;11380;50.822;15.790;2022-12-20T07:18:21;2.30;99.90
22426;DHT22;11380;50.822;15.790;2022-12-20T07:23:30;2.50;99.90
22426;DHT22;11380;50.822;15.790;2022-12-20T07:28:37;2.60;99.90
22426;DHT22;11380;50.822;15.790;2022-12-20T07:33:43;2.60;99.90
22426;DHT22;11380;50.822;15.790;2022-12-20T07:38:49;2.40;99.90
22426;DHT22;11380;50.822;15.790;2022-12-20T07:43:55;2.20;99.90
22426;DHT22;11380;50.822;15.790;2022-12-20T07:49:03;2.40;99.90
22426;DHT22;11380;50.822;15.790;2022-12-20T07:54:16;2.50;99.90
22426;DHT22;11380;50.822;15.790;2022-12-20T07:59:29;2.60;99.90
22426;DHT22;11380;50.822;15.790;2022-12-20T08:04:37;2.50;99.90
22426;DHT22;11380;50.822;15.790;2022-12-20T08:09:44;2.50;1.00
22426;DHT22;11380;50.822;15.790;2022-12-20T08:14:53;2.60;99.90
22426;DHT22;11380;50.822;15.790;2022-12-20T08:20:00;2.50;1.00
22426;DHT22;11380;50.822;15.790;2022-12-20T08:25:08;2.60;1.00
22426;DHT22;11380;50.822;15.790;2022-12-20T08:30:15;2.50;1.00
22426;DHT22;11380;50.822;15.790;2022-12-20T08:35:22;2.60;1.00
22426;DHT22;11380;50.822;15.790;2022-12-20T08:40:29;2.60;1.00
22426;DHT22;11380;50.822;15.790;2022-12-20T08:45:35;3.00;1.00
22426;DHT22;11380;50.822;15.790;2022-12-20T08:50:42;3.00;99.90
22426;DHT22;11380;50.822;15.790;2022-12-20T08:55:49;3.10;99.90
22426;DHT22;11380;50.822;15.790;2022-12-20T09:00:58;3.00;99.90
22426;DHT22;11380;50.822;15.790;2022-12-20T09:06:09;3.00;99.90
22426;DHT22;11380;50.822;15.790;2022-12-20T09:11:20;3.40;99.90
22426;DHT22;11380;50.822;15.790;2022-12-20T09:16:30;3.90;1.00
22426;DHT22;11380;50.822;15.790;2022-12-20T09:21:37;4.20;1.00
22426;DHT22;11380;50.822;15.790;2022-12-20T09:26:43;4.40;1.00
22426;DHT22;11380;50.822;15.790;2022-12-20T09:31:51;4.00;1.00
22426;DHT22;11380;50.822;15.790;2022-12-20T09:36:58;4.00;1.00
22426;DHT22;11380;50.822;15.790;2022-12-20T09:42:07;4.10;1.00
22426;DHT22;11380;50.822;15.790;2022-12-20T09:47:22;4.50;1.00
22426;DHT22;11380;50.822;15.790;2022-12-20T09:52:50;4.70;1.00
22426;DHT22;11380;50.822;15.790;2022-12-20T09:58:24;4.90;1.00
22426;DHT22;11380;50.822;15.790;2022-12-20T10:03:36;4.50;1.00
22426;DHT22;11380;50.822;15.790;2022-12-20T10:09:01;4.30;1.00
22426;DHT22;11380;50.822;15.790;2022-12-20T10:20:02;4.20;1.00
22426;DHT22;11380;50.822;15.790;2022-12-20T10:25:21;3.90;99.90
22426;DHT22;11380;50.822;15.790;2022-12-20T10:30:30;3.80;99.90
22426;DHT22;11380;50.822;15.790;2022-12-20T10:35:40;3.90;75.00
22426;DHT22;11380;50.822;15.790;2022-12-20T10:41:00;3.80;99.90
22426;DHT22;11380;50.822;15.790;2022-12-20T10:46:09;3.90;99.90
22426;DHT22;11380;50.822;15.790;2022-12-20T10:51:20;4.00;67.90
22426;DHT22;11380;50.822;15.790;2022-12-20T10:56:30;4.30;1.00
22426;DHT22;11380;50.822;15.790;2022-12-20T11:01:46;4.40;99.90
22426;DHT22;11380;50.822;15.790;2022-12-20T11:06:53;4.30;99.90
22426;DHT22;11380;50.822;15.790;2022-12-20T11:12:14;4.00;99.90
22426;DHT22;11380;50.822;15.790;2022-12-20T11:17:40;3.90;99.90
22426;DHT22;11380;50.822;15.790;2022-12-20T11:23:08;3.80;99.90
22426;DHT22;11380;50.822;15.790;2022-12-20T11:28:39;3.90;99.90
22426;DHT22;11380;50.822;15.790;2022-12-20T11:34:16;3.70;99.90
22426;DHT22;11380;50.822;15.790;2022-12-20T11:39:38;3.60;99.90
22426;DHT22;11380;50.822;15.790;2022-12-20T11:45:10;3.50;99.90
22426;DHT22;11380;50.822;15.790;2022-12-20T11:50:38;3.50;99.90
22426;DHT22;11380;50.822;15.790;2022-12-20T11:55:53;3.60;99.90
22426;DHT22;11380;50.822;15.790;2022-12-20T12:01:08;3.70;99.90
22426;DHT22;11380;50.822;15.790;2022-12-20T12:06:26;3.50;99.90
22426;DHT22;11380;50.822;15.790;2022-12-20T12:11:52;3.50;99.90
22426;DHT22;11380;50.822;15.790;2022-12-20T12:17:12;3.30;99.90
22426;DHT22;11380;50.822;15.790;2022-12-20T12:22:27;3.10;99.90
22426;DHT22;11380;50.822;15.790;2022-12-20T12:27:35;3.10;99.90
22426;DHT22;11380;50.822;15.790;2022-12-20T12:32:45;3.10;99.90
22426;DHT22;11380;50.822;15.790;2022-12-20T12:38:02;3.40;99.90
22426;DHT22;11380;50.822;15.790;2022-12-20T12:48:59;3.40;99.90
22426;DHT22;11380;50.822;15.790;2022-12-20T12:54:16;3.30;99.90
22426;DHT22;11380;50.822;15.790;2022-12-20T13:04:58;2.90;99.90
22426;DHT22;11380;50.822;15.790;2022-12-20T13:26:48;3.00;99.90
22426;DHT22;11380;50.822;15.790;2022-12-20T13:31:48;3.00;99.90
22426;DHT22;11380;50.822;15.790;2022-12-20T13:37:00;3.30;99.90
22426;DHT22;11380;50.822;15.790;2022-12-20T13:42:29;3.20;99.90
22426;DHT22;11380;50.822;15.790;2022-12-20T13:47:44;3.30;99.90
22426;DHT22;11380;50.822;15.790;2022-12-20T13:52:56;3.60;99.90
22426;DHT22;11380;50.822;15.790;2022-12-20T13:58:05;3.90;99.90
22426;DHT22;11380;50.822;15.790;2022-12-20T14:03:27;3.70;99.90
22426;DHT22;11380;50.822;15.790;2022-12-20T14:08:41;3.60;99.90
22426;DHT22;11380;50.822;15.790;2022-12-20T14:13:56;3.10;99.90
22426;DHT22;11380;50.822;15.790;2022-12-20T14:19:12;3.20;99.90
22426;DHT22;11380;50.822;15.790;2022-12-20T14:24:21;3.40;99.90
22426;DHT22;11380;50.822;15.790;2022-12-20T14:29:29;3.20;99.90
22426;DHT22;11380;50.822;15.790;2022-12-20T14:34:36;3.10;99.90
22426;DHT22;11380;50.822;15.790;2022-12-20T14:45:25;2.90;99.90
22426;DHT22;11380;50.822;15.790;2022-12-20T14:50:35;3.60;99.90
22426;DHT22;11380;50.822;15.790;2022-12-20T14:55:45;3.90;99.90
22426;DHT22;11380;50.822;15.790;2022-12-20T15:00:58;3.20;99.90
22426;DHT22;11380;50.822;15.790;2022-12-20T15:06:08;3.30;99.90
22426;DHT22;11380;50.822;15.790;2022-12-20T15:11:20;3.20;99.90
22426;DHT22;11380;50.822;15.790;2022-12-20T15:16:28;3.30;99.90
22426;DHT22;11380;50.822;15.790;2022-12-20T15:21:37;2.90;99.90
22426;DHT22;11380;50.822;15.790;2022-12-20T15:26:48;2.30;1.00
22426;DHT22;11380;50.822;15.790;2022-12-20T15:32:04;2.10;1.00
22426;DHT22;11380;50.822;15.790;2022-12-20T15:37:22;2.00;1.00
22426;DHT22;11380;50.822;15.790;2022-12-20T15:42:29;2.00;1.00
22426;DHT22;11380;50.822;15.790;2022-12-20T15:47:35;2.10;1.00
22426;DHT22;11380;50.822;15.790;2022-12-20T15:52:42;1.90;1.00
22426;DHT22;11380;50.822;15.790;2022-12-20T15:57:49;1.80;1.00
22426;DHT22;11380;50.822;15.790;2022-12-20T16:02:56;1.80;1.00
22426;DHT22;11380;50.822;15.790;2022-12-20T16:08:06;1.80;1.00
22426;DHT22;11380;50.822;15.790;2022-12-20T16:13:19;1.80;1.00
22426;DHT22;11380;50.822;15.790;2022-12-20T16:18:28;1.80;1.00
22426;DHT22;11380;50.822;15.790;2022-12-20T16:23:36;1.70;1.00
22426;DHT22;11380;50.822;15.790;2022-12-20T16:28:43;1.70;1.00
22426;DHT22;11380;50.822;15.790;2022-12-20T16:33:52;1.60;1.00
22426;DHT22;11380;50.822;15.790;2022-12-20T16:39:00;1.70;1.00
22426;DHT22;11380;50.822;15.790;2022-12-20T16:44:11;1.70;1.00
22426;DHT22;11380;50.822;15.790;2022-12-20T16:49:17;1.60;1.00
22426;DHT22;11380;50.822;15.790;2022-12-20T16:54:24;1.70;1.00
22426;DHT22;11380;50.822;15.790;2022-12-20T16:59:30;1.60;1.00
22426;DHT22;11380;50.822;15.790;2022-12-20T17:04:37;1.50;1.00
22426;DHT22;11380;50.822;15.790;2022-12-20T17:09:46;1.60;1.00
22426;DHT22;11380;50.822;15.790;2022-12-20T17:14:54;1.60;1.00
22426;DHT22;11380;50.822;15.790;2022-12-20T17:20:00;1.70;1.00
22426;DHT22;11380;50.822;15.790;2022-12-20T17:25:15;1.60;1.00
22426;DHT22;11380;50.822;15.790;2022-12-20T17:30:21;1.60;1.00
22426;DHT22;11380;50.822;15.790;2022-12-20T17:35:31;1.60;1.00
22426;DHT22;11380;50.822;15.790;2022-12-20T17:40:38;1.60;1.00
22426;DHT22;11380;50.822;15.790;2022-12-20T17:45:44;1.50;1.00
22426;DHT22;11380;50.822;15.790;2022-12-20T17:50:51;1.40;1.00
22426;DHT22;11380;50.822;15.790;2022-12-20T17:55:56;1.40;1.00
22426;DHT22;11380;50.822;15.790;2022-12-20T18:01:04;1.70;1.00
22426;DHT22;11380;50.822;15.790;2022-12-20T18:06:10;2.20;1.00
22426;DHT22;11380;50.822;15.790;2022-12-20T18:11:19;2.80;1.00
22426;DHT22;11380;50.822;15.790;2022-12-20T18:16:29;3.10;1.00
22426;DHT22;11380;50.822;15.790;2022-12-20T18:21:38;3.00;1.00
22426;DHT22;11380;50.822;15.790;2022-12-20T18:26:45;3.10;1.00
22426;DHT22;11380;50.822;15.790;2022-12-20T18:31:51;3.20;99.90
22426;DHT22;11380;50.822;15.790;2022-12-20T18:36:58;3.10;1.00
22426;DHT22;11380;50.822;15.790;2022-12-20T18:42:06;2.80;1.00
22426;DHT22;11380;50.822;15.790;2022-12-20T18:47:13;2.30;1.00
22426;DHT22;11380;50.822;15.790;2022-12-20T18:52:19;2.20;1.00
22426;DHT22;11380;50.822;15.790;2022-12-20T18:57:26;2.20;1.00
22426;DHT22;11380;50.822;15.790;2022-12-20T19:02:32;2.20;1.00
22426;DHT22;11380;50.822;15.790;2022-12-20T19:07:39;2.70;1.00
22426;DHT22;11380;50.822;15.790;2022-12-20T19:12:47;2.50;1.00
22426;DHT22;11380;50.822;15.790;2022-12-20T19:17:53;2.80;1.00
22426;DHT22;11380;50.822;15.790;2022-12-20T19:23:00;3.30;99.90
22426;DHT22;11380;50.822;15.790;2022-12-20T19:28:09;3.20;99.90
22426;DHT22;11380;50.822;15.790;2022-12-20T19:33:16;2.50;1.00
22426;DHT22;11380;50.822;15.790;2022-12-20T19:38:23;2.30;1.00
22426;DHT22;11380;50.822;15.790;2022-12-20T19:43:31;2.10;1.00
22426;DHT22;11380;50.822;15.790;2022-12-20T19:48:38;2.00;1.00
22426;DHT22;11380;50.822;15.790;2022-12-20T19:53:46;2.60;1.00
22426;DHT22;11380;50.822;15.790;2022-12-20T19:58:56;2.40;1.00
22426;DHT22;11380;50.822;15.790;2022-12-20T20:04:04;2.10;1.00
22426;DHT22;11380;50.822;15.790;2022-12-20T20:09:12;2.40;1.00
22426;DHT22;11380;50.822;15.790;2022-12-20T20:14:20;2.40;1.00
22426;DHT22;11380;50.822;15.790;2022-12-20T20:19:27;2.20;1.00
22426;DHT22;11380;50.822;15.790;2022-12-20T20:24:34;2.50;1.00
22426;DHT22;11380;50.822;15.790;2022-12-20T20:29:40;2.30;1.00
22426;DHT22;11380;50.822;15.790;2022-12-20T20:34:48;1.80;1.00
22426;DHT22;11380;50.822;15.790;2022-12-20T20:39:54;1.80;1.00
22426;DHT22;11380;50.822;15.790;2022-12-20T20:45:00;1.60;1.00
22426;DHT22;11380;50.822;15.790;2022-12-20T20:50:09;1.60;1.00
22426;DHT22;11380;50.822;15.790;2022-12-20T20:55:16;1.70;1.00
22426;DHT22;11380;50.822;15.790;2022-12-20T21:00:22;1.60;1.00
22426;DHT22;11380;50.822;15.790;2022-12-20T21:05:29;1.50;1.00
22426;DHT22;11380;50.822;15.790;2022-12-20T21:10:37;1.50;1.00
22426;DHT22;11380;50.822;15.790;2022-12-20T21:15:44;1.50;1.00
22426;DHT22;11380;50.822;15.790;2022-12-20T21:20:51;1.40;1.00
22426;DHT22;11380;50.822;15.790;2022-12-20T21:25:58;1.50;1.00
22426;DHT22;11380;50.822;15.790;2022-12-20T21:31:06;1.90;1.00
22426;DHT22;11380;50.822;15.790;2022-12-20T21:36:17;1.90;1.00
22426;DHT22;11380;50.822;15.790;2022-12-20T21:41:26;2.00;1.00
22426;DHT22;11380;50.822;15.790;2022-12-20T21:46:33;2.20;1.00
22426;DHT22;11380;50.822;15.790;2022-12-20T21:51:41;2.10;1.00
22426;DHT22;11380;50.822;15.790;2022-12-20T21:56:49;2.40;1.00
22426;DHT22;11380;50.822;15.790;2022-12-20T22:01:56;2.10;1.00
22426;DHT22;11380;50.822;15.790;2022-12-20T22:07:02;1.60;1.00
22426;DHT22;11380;50.822;15.790;2022-12-20T22:12:09;1.40;1.00
22426;DHT22;11380;50.822;15.790;2022-12-20T22:17:16;1.10;1.00
22426;DHT22;11380;50.822;15.790;2022-12-20T22:22:24;1.10;1.00
22426;DHT22;11380;50.822;15.790;2022-12-20T22:27:30;0.90;1.00
22426;DHT22;11380;50.822;15.790;2022-12-20T22:32:36;1.60;1.00
22426;DHT22;11380;50.822;15.790;2022-12-20T22:37:43;2.00;1.00
22426;DHT22;11380;50.822;15.790;2022-12-20T22:42:50;2.10;1.00
22426;DHT22;11380;50.822;15.790;2022-12-20T22:47:56;2.30;1.00
22426;DHT22;11380;50.822;15.790;2022-12-20T22:53:02;2.00;1.00
22426;DHT22;11380;50.822;15.790;2022-12-20T22:58:09;1.80;1.00
22426;DHT22;11380;50.822;15.790;2022-12-20T23:03:15;1.90;1.00
22426;DHT22;11380;50.822;15.790;2022-12-20T23:08:25;1.90;1.00
22426;DHT22;11380;50.822;15.790;2022-12-20T23:13:33;2.00;1.00
22426;DHT22;11380;50.822;15.790;2022-12-20T23:18:59;2.10;1.00
22426;DHT22;11380;50.822;15.790;2022-12-20T23:24:06;1.90;1.00
22426;DHT22;11380;50.822;15.790;2022-12-20T23:29:13;1.80;1.00
22426;DHT22;11380;50.822;15.790;2022-12-20T23:34:21;1.60;1.00
22426;DHT22;11380;50.822;15.790;2022-12-20T23:39:28;1.00;1.00
22426;DHT22;11380;50.822;15.790;2022-12-20T23:44:34;0.70;1.00
22426;DHT22;11380;50.822;15.790;2022-12-20T23:49:41;0.60;1.00
22426;DHT22;11380;50.822;15.790;2022-12-20T23:54:48;1.10;1.00
22426;DHT22;11380;50.822;15.790;2022-12-20T23:59:54;1.00;1.00
